Terminal Aerodrome Forecast
Issued by NWS

Current Version | Previous Version | Text Only | Print | Product List | Glossary Off
Versions: 1 2 3 4 5 6 7 8 9 10 11 12 13 14 15 16 17 18 19 20 21

000
FTUS41 KPBZ 252300
TAFHLG
TAF
KHLG 252320Z 2600/2624 00000KT P6SM BKN250
     FM261000 02007KT P6SM BKN030 OVC100
     FM261200 02008KT 2SM -SHSN BKN015 OVC025
     FM261700 34010KT 2SM -SHSN BKN015=

USA.gov is the U.S. government's official web portal to all federal, state and local government web resources and services.